sensor_id;sensor_type;location;lat;lon;timestamp;temperature;humidity
5899;DHT22;2975;50.956;6.962;2022-09-28T00:01:26;9.30;99.90
5899;DHT22;2975;50.956;6.962;2022-09-28T00:03:54;9.30;99.90
5899;DHT22;2975;50.956;6.962;2022-09-28T00:06:24;9.30;99.90
5899;DHT22;2975;50.956;6.962;2022-09-28T00:08:50;9.30;99.90
5899;DHT22;2975;50.956;6.962;2022-09-28T00:11:17;9.30;99.90
5899;DHT22;2975;50.956;6.962;2022-09-28T00:13:43;9.30;99.90
5899;DHT22;2975;50.956;6.962;2022-09-28T00:16:15;9.20;99.90
5899;DHT22;2975;50.956;6.962;2022-09-28T00:18:41;9.20;99.90
5899;DHT22;2975;50.956;6.962;2022-09-28T00:21:13;9.20;99.90
5899;DHT22;2975;50.956;6.962;2022-09-28T00:23:40;9.40;99.90
5899;DHT22;2975;50.956;6.962;2022-09-28T00:26:29;9.30;99.90
5899;DHT22;2975;50.956;6.962;2022-09-28T00:28:57;9.30;99.90
5899;DHT22;2975;50.956;6.962;2022-09-28T00:31:24;9.30;99.90
5899;DHT22;2975;50.956;6.962;2022-09-28T00:33:51;9.30;99.90
5899;DHT22;2975;50.956;6.962;2022-09-28T00:36:17;9.30;99.90
5899;DHT22;2975;50.956;6.962;2022-09-28T00:38:43;9.30;99.90
5899;DHT22;2975;50.956;6.962;2022-09-28T00:41:11;9.30;99.90
5899;DHT22;2975;50.956;6.962;2022-09-28T00:43:37;9.30;99.90
5899;DHT22;2975;50.956;6.962;2022-09-28T00:46:30;9.30;99.90
5899;DHT22;2975;50.956;6.962;2022-09-28T00:49:03;9.30;99.90
5899;DHT22;2975;50.956;6.962;2022-09-28T00:51:31;9.30;99.90
5899;DHT22;2975;50.956;6.962;2022-09-28T00:53:57;9.30;99.90
5899;DHT22;2975;50.956;6.962;2022-09-28T00:56:27;9.30;99.90
5899;DHT22;2975;50.956;6.962;2022-09-28T00:58:54;9.30;99.90
5899;DHT22;2975;50.956;6.962;2022-09-28T01:01:21;9.30;99.90
5899;DHT22;2975;50.956;6.962;2022-09-28T01:03:47;9.30;99.90
5899;DHT22;2975;50.956;6.962;2022-09-28T01:06:19;9.30;99.90
5899;DHT22;2975;50.956;6.962;2022-09-28T01:08:47;9.30;99.90
5899;DHT22;2975;50.956;6.962;2022-09-28T01:11:15;9.30;99.90
5899;DHT22;2975;50.956;6.962;2022-09-28T01:13:41;9.20;99.90
5899;DHT22;2975;50.956;6.962;2022-09-28T01:16:31;9.20;99.90
5899;DHT22;2975;50.956;6.962;2022-09-28T01:21:53;9.10;99.90
5899;DHT22;2975;50.956;6.962;2022-09-28T01:24:42;9.10;99.90
5899;DHT22;2975;50.956;6.962;2022-09-28T01:30:03;9.00;99.90
5899;DHT22;2975;50.956;6.962;2022-09-28T01:32:55;9.00;99.90
5899;DHT22;2975;50.956;6.962;2022-09-28T01:35:31;9.00;99.90
5899;DHT22;2975;50.956;6.962;2022-09-28T01:38:03;9.00;99.90
5899;DHT22;2975;50.956;6.962;2022-09-28T01:40:31;8.90;99.90
5899;DHT22;2975;50.956;6.962;2022-09-28T01:43:13;9.00;99.90
5899;DHT22;2975;50.956;6.962;2022-09-28T01:45:46;9.00;99.90
5899;DHT22;2975;50.956;6.962;2022-09-28T01:48:18;8.90;99.90
5899;DHT22;2975;50.956;6.962;2022-09-28T01:50:47;9.00;99.90
5899;DHT22;2975;50.956;6.962;2022-09-28T01:56:00;9.00;99.90
5899;DHT22;2975;50.956;6.962;2022-09-28T02:01:01;9.00;99.90
5899;DHT22;2975;50.956;6.962;2022-09-28T02:03:34;9.00;99.90
5899;DHT22;2975;50.956;6.962;2022-09-28T02:06:07;9.00;99.90
5899;DHT22;2975;50.956;6.962;2022-09-28T02:08:39;9.00;99.90
5899;DHT22;2975;50.956;6.962;2022-09-28T02:11:12;9.00;99.90
5899;DHT22;2975;50.956;6.962;2022-09-28T02:13:45;9.10;99.90
5899;DHT22;2975;50.956;6.962;2022-09-28T02:18:42;9.10;99.90
5899;DHT22;2975;50.956;6.962;2022-09-28T02:21:28;9.10;99.90
5899;DHT22;2975;50.956;6.962;2022-09-28T02:24:01;9.10;99.90
5899;DHT22;2975;50.956;6.962;2022-09-28T02:26:31;9.10;99.90
5899;DHT22;2975;50.956;6.962;2022-09-28T02:28:59;9.00;99.90
5899;DHT22;2975;50.956;6.962;2022-09-28T02:31:25;9.00;99.90
5899;DHT22;2975;50.956;6.962;2022-09-28T02:33:52;9.00;99.90
5899;DHT22;2975;50.956;6.962;2022-09-28T02:36:19;8.90;99.90
5899;DHT22;2975;50.956;6.962;2022-09-28T02:38:45;9.00;99.90
5899;DHT22;2975;50.956;6.962;2022-09-28T02:47:01;9.00;99.90
5899;DHT22;2975;50.956;6.962;2022-09-28T02:52:32;9.10;99.90
5899;DHT22;2975;50.956;6.962;2022-09-28T03:00:42;9.20;99.90
5899;DHT22;2975;50.956;6.962;2022-09-28T03:04:09;9.20;99.90
5899;DHT22;2975;50.956;6.962;2022-09-28T03:06:26;9.30;99.90
5899;DHT22;2975;50.956;6.962;2022-09-28T03:09:04;9.40;99.90
5899;DHT22;2975;50.956;6.962;2022-09-28T03:11:36;9.40;99.90
5899;DHT22;2975;50.956;6.962;2022-09-28T03:14:04;9.40;99.90
5899;DHT22;2975;50.956;6.962;2022-09-28T03:16:30;9.40;99.90
5899;DHT22;2975;50.956;6.962;2022-09-28T03:18:56;9.40;99.90
5899;DHT22;2975;50.956;6.962;2022-09-28T03:21:22;9.40;99.90
5899;DHT22;2975;50.956;6.962;2022-09-28T03:23:48;9.40;99.90
5899;DHT22;2975;50.956;6.962;2022-09-28T03:26:13;9.40;99.90
5899;DHT22;2975;50.956;6.962;2022-09-28T03:28:40;9.50;99.90
5899;DHT22;2975;50.956;6.962;2022-09-28T03:31:06;9.50;99.90
5899;DHT22;2975;50.956;6.962;2022-09-28T03:33:31;9.50;99.90
5899;DHT22;2975;50.956;6.962;2022-09-28T03:35:57;9.50;99.90
5899;DHT22;2975;50.956;6.962;2022-09-28T03:38:23;9.40;99.90
5899;DHT22;2975;50.956;6.962;2022-09-28T03:40:56;9.50;99.90
5899;DHT22;2975;50.956;6.962;2022-09-28T03:43:23;9.50;99.90
5899;DHT22;2975;50.956;6.962;2022-09-28T03:48:21;9.50;99.90
5899;DHT22;2975;50.956;6.962;2022-09-28T03:50:47;9.50;99.90
5899;DHT22;2975;50.956;6.962;2022-09-28T03:53:13;9.50;99.90
5899;DHT22;2975;50.956;6.962;2022-09-28T03:55:38;9.50;99.90
5899;DHT22;2975;50.956;6.962;2022-09-28T03:58:04;9.50;99.90
5899;DHT22;2975;50.956;6.962;2022-09-28T04:00:29;9.50;99.90
5899;DHT22;2975;50.956;6.962;2022-09-28T04:02:55;9.50;99.90
5899;DHT22;2975;50.956;6.962;2022-09-28T04:05:20;9.50;99.90
5899;DHT22;2975;50.956;6.962;2022-09-28T04:07:46;9.50;99.90
5899;DHT22;2975;50.956;6.962;2022-09-28T04:10:12;9.50;99.90
5899;DHT22;2975;50.956;6.962;2022-09-28T04:12:37;9.50;99.90
5899;DHT22;2975;50.956;6.962;2022-09-28T04:15:03;9.50;99.90
5899;DHT22;2975;50.956;6.962;2022-09-28T04:17:29;9.50;99.90
5899;DHT22;2975;50.956;6.962;2022-09-28T04:19:56;9.50;99.90
5899;DHT22;2975;50.956;6.962;2022-09-28T04:22:22;9.50;99.90
5899;DHT22;2975;50.956;6.962;2022-09-28T04:24:47;9.40;99.90
5899;DHT22;2975;50.956;6.962;2022-09-28T04:27:13;9.40;99.90
5899;DHT22;2975;50.956;6.962;2022-09-28T04:29:57;9.40;99.90
5899;DHT22;2975;50.956;6.962;2022-09-28T04:32:23;9.40;99.90
5899;DHT22;2975;50.956;6.962;2022-09-28T04:34:48;9.40;99.90
5899;DHT22;2975;50.956;6.962;2022-09-28T04:37:16;9.40;99.90
5899;DHT22;2975;50.956;6.962;2022-09-28T04:39:41;9.40;99.90
5899;DHT22;2975;50.956;6.962;2022-09-28T04:42:09;9.40;99.90
5899;DHT22;2975;50.956;6.962;2022-09-28T04:44:35;9.40;99.90
5899;DHT22;2975;50.956;6.962;2022-09-28T04:47:00;9.40;99.90
5899;DHT22;2975;50.956;6.962;2022-09-28T04:49:26;9.40;99.90
5899;DHT22;2975;50.956;6.962;2022-09-28T04:51:51;9.50;99.90
5899;DHT22;2975;50.956;6.962;2022-09-28T04:54:17;9.50;99.90
5899;DHT22;2975;50.956;6.962;2022-09-28T04:56:43;9.50;99.90
5899;DHT22;2975;50.956;6.962;2022-09-28T04:59:09;9.50;99.90
5899;DHT22;2975;50.956;6.962;2022-09-28T05:01:34;9.50;99.90
5899;DHT22;2975;50.956;6.962;2022-09-28T05:04:01;9.50;99.90
5899;DHT22;2975;50.956;6.962;2022-09-28T05:06:27;9.50;99.90
5899;DHT22;2975;50.956;6.962;2022-09-28T05:08:54;9.50;99.90
5899;DHT22;2975;50.956;6.962;2022-09-28T05:11:22;9.50;99.90
5899;DHT22;2975;50.956;6.962;2022-09-28T05:13:47;9.50;99.90
5899;DHT22;2975;50.956;6.962;2022-09-28T05:16:15;9.50;99.90
5899;DHT22;2975;50.956;6.962;2022-09-28T05:18:41;9.50;99.90
5899;DHT22;2975;50.956;6.962;2022-09-28T05:21:14;9.50;99.90
5899;DHT22;2975;50.956;6.962;2022-09-28T05:23:44;9.50;99.90
5899;DHT22;2975;50.956;6.962;2022-09-28T05:26:10;9.40;99.90
5899;DHT22;2975;50.956;6.962;2022-09-28T05:28:35;9.50;99.90
5899;DHT22;2975;50.956;6.962;2022-09-28T05:31:03;9.40;99.90
5899;DHT22;2975;50.956;6.962;2022-09-28T05:33:30;9.40;99.90
5899;DHT22;2975;50.956;6.962;2022-09-28T05:35:57;9.40;99.90
5899;DHT22;2975;50.956;6.962;2022-09-28T05:38:23;9.40;99.90
5899;DHT22;2975;50.956;6.962;2022-09-28T05:40:49;9.40;99.90
5899;DHT22;2975;50.956;6.962;2022-09-28T05:43:14;9.40;99.90
5899;DHT22;2975;50.956;6.962;2022-09-28T05:45:40;9.40;99.90
5899;DHT22;2975;50.956;6.962;2022-09-28T05:48:06;9.40;99.90
5899;DHT22;2975;50.956;6.962;2022-09-28T05:50:31;9.50;99.90
5899;DHT22;2975;50.956;6.962;2022-09-28T05:53:08;9.50;99.90
5899;DHT22;2975;50.956;6.962;2022-09-28T05:55:35;9.60;99.90
5899;DHT22;2975;50.956;6.962;2022-09-28T05:58:03;9.60;99.90
5899;DHT22;2975;50.956;6.962;2022-09-28T06:00:30;9.60;99.90
5899;DHT22;2975;50.956;6.962;2022-09-28T06:03:00;9.60;99.90
5899;DHT22;2975;50.956;6.962;2022-09-28T06:05:27;9.60;99.90
5899;DHT22;2975;50.956;6.962;2022-09-28T06:07:57;9.70;99.90
5899;DHT22;2975;50.956;6.962;2022-09-28T06:10:24;9.70;99.90
5899;DHT22;2975;50.956;6.962;2022-09-28T06:12:52;9.60;99.90
5899;DHT22;2975;50.956;6.962;2022-09-28T06:15:18;9.70;99.90
5899;DHT22;2975;50.956;6.962;2022-09-28T06:17:43;9.70;99.90
5899;DHT22;2975;50.956;6.962;2022-09-28T06:20:09;9.70;99.90
5899;DHT22;2975;50.956;6.962;2022-09-28T06:22:36;9.70;99.90
5899;DHT22;2975;50.956;6.962;2022-09-28T06:25:02;9.80;99.90
5899;DHT22;2975;50.956;6.962;2022-09-28T06:27:28;9.80;99.90
5899;DHT22;2975;50.956;6.962;2022-09-28T06:29:53;9.80;99.90
5899;DHT22;2975;50.956;6.962;2022-09-28T06:32:19;9.80;99.90
5899;DHT22;2975;50.956;6.962;2022-09-28T06:34:44;9.80;99.90
5899;DHT22;2975;50.956;6.962;2022-09-28T06:37:10;9.80;99.90
5899;DHT22;2975;50.956;6.962;2022-09-28T06:39:35;9.90;99.90
5899;DHT22;2975;50.956;6.962;2022-09-28T06:42:01;9.90;99.90
5899;DHT22;2975;50.956;6.962;2022-09-28T06:44:28;9.90;99.90
5899;DHT22;2975;50.956;6.962;2022-09-28T06:46:54;9.90;99.90
5899;DHT22;2975;50.956;6.962;2022-09-28T06:49:20;9.80;99.90
5899;DHT22;2975;50.956;6.962;2022-09-28T06:51:46;9.90;99.90
5899;DHT22;2975;50.956;6.962;2022-09-28T06:54:12;9.90;99.90
5899;DHT22;2975;50.956;6.962;2022-09-28T06:56:38;9.90;99.90
5899;DHT22;2975;50.956;6.962;2022-09-28T06:59:03;9.90;99.90
5899;DHT22;2975;50.956;6.962;2022-09-28T07:01:29;9.90;99.90
5899;DHT22;2975;50.956;6.962;2022-09-28T07:03:55;9.90;99.90
5899;DHT22;2975;50.956;6.962;2022-09-28T07:06:22;10.00;99.90
5899;DHT22;2975;50.956;6.962;2022-09-28T07:08:50;10.10;99.90
5899;DHT22;2975;50.956;6.962;2022-09-28T07:11:16;10.10;99.90
5899;DHT22;2975;50.956;6.962;2022-09-28T07:13:44;10.20;99.90
5899;DHT22;2975;50.956;6.962;2022-09-28T07:16:10;10.20;99.90
5899;DHT22;2975;50.956;6.962;2022-09-28T07:18:36;10.30;99.90
5899;DHT22;2975;50.956;6.962;2022-09-28T07:21:02;10.40;99.90
5899;DHT22;2975;50.956;6.962;2022-09-28T07:23:28;10.40;99.90
5899;DHT22;2975;50.956;6.962;2022-09-28T07:25:55;10.40;99.90
5899;DHT22;2975;50.956;6.962;2022-09-28T07:28:22;10.50;99.90
5899;DHT22;2975;50.956;6.962;2022-09-28T07:30:48;10.60;99.90
5899;DHT22;2975;50.956;6.962;2022-09-28T07:33:15;10.70;99.90
5899;DHT22;2975;50.956;6.962;2022-09-28T07:35:49;10.80;99.90
5899;DHT22;2975;50.956;6.962;2022-09-28T07:38:15;10.90;99.90
5899;DHT22;2975;50.956;6.962;2022-09-28T07:40:40;10.90;99.90
5899;DHT22;2975;50.956;6.962;2022-09-28T07:43:24;11.10;99.90
5899;DHT22;2975;50.956;6.962;2022-09-28T07:45:51;11.10;99.90
5899;DHT22;2975;50.956;6.962;2022-09-28T07:48:18;11.20;99.90
5899;DHT22;2975;50.956;6.962;2022-09-28T07:50:48;11.30;99.90
5899;DHT22;2975;50.956;6.962;2022-09-28T07:53:18;11.40;99.90
5899;DHT22;2975;50.956;6.962;2022-09-28T07:55:50;11.50;99.90
5899;DHT22;2975;50.956;6.962;2022-09-28T07:58:15;11.60;99.90
5899;DHT22;2975;50.956;6.962;2022-09-28T08:00:41;11.70;99.90
5899;DHT22;2975;50.956;6.962;2022-09-28T08:03:06;12.00;99.90
5899;DHT22;2975;50.956;6.962;2022-09-28T08:05:32;12.10;99.90
5899;DHT22;2975;50.956;6.962;2022-09-28T08:08:01;12.30;99.90
5899;DHT22;2975;50.956;6.962;2022-09-28T08:10:27;12.30;99.90
5899;DHT22;2975;50.956;6.962;2022-09-28T08:12:56;12.40;99.90
5899;DHT22;2975;50.956;6.962;2022-09-28T08:15:26;12.50;99.90
5899;DHT22;2975;50.956;6.962;2022-09-28T08:17:52;12.60;99.90
5899;DHT22;2975;50.956;6.962;2022-09-28T08:20:18;12.60;99.90
5899;DHT22;2975;50.956;6.962;2022-09-28T08:23:06;12.50;99.90
5899;DHT22;2975;50.956;6.962;2022-09-28T08:25:32;12.60;99.90
5899;DHT22;2975;50.956;6.962;2022-09-28T08:27:58;12.50;99.90
5899;DHT22;2975;50.956;6.962;2022-09-28T08:30:25;12.40;99.90
5899;DHT22;2975;50.956;6.962;2022-09-28T08:32:51;12.40;99.90
5899;DHT22;2975;50.956;6.962;2022-09-28T08:35:17;12.30;99.90
5899;DHT22;2975;50.956;6.962;2022-09-28T08:37:42;12.30;99.90
5899;DHT22;2975;50.956;6.962;2022-09-28T08:40:20;12.40;99.90
5899;DHT22;2975;50.956;6.962;2022-09-28T08:42:51;12.40;99.90
5899;DHT22;2975;50.956;6.962;2022-09-28T08:45:35;12.40;99.90
5899;DHT22;2975;50.956;6.962;2022-09-28T08:48:09;12.30;99.90
5899;DHT22;2975;50.956;6.962;2022-09-28T08:51:03;12.30;99.90
5899;DHT22;2975;50.956;6.962;2022-09-28T08:56:38;12.50;99.90
5899;DHT22;2975;50.956;6.962;2022-09-28T08:59:12;12.30;99.90
5899;DHT22;2975;50.956;6.962;2022-09-28T09:01:43;12.20;99.90
5899;DHT22;2975;50.956;6.962;2022-09-28T09:04:11;12.10;99.90
5899;DHT22;2975;50.956;6.962;2022-09-28T09:07:06;12.00;99.90
5899;DHT22;2975;50.956;6.962;2022-09-28T09:15:26;12.60;99.90
5899;DHT22;2975;50.956;6.962;2022-09-28T09:18:11;12.60;99.90
5899;DHT22;2975;50.956;6.962;2022-09-28T09:20:46;12.50;99.90
5899;DHT22;2975;50.956;6.962;2022-09-28T09:23:32;12.30;99.90
5899;DHT22;2975;50.956;6.962;2022-09-28T09:37:06;12.80;99.90
5899;DHT22;2975;50.956;6.962;2022-09-28T09:47:40;14.10;99.90
5899;DHT22;2975;50.956;6.962;2022-09-28T09:50:26;14.00;99.90
5899;DHT22;2975;50.956;6.962;2022-09-28T09:53:15;13.80;99.90
5899;DHT22;2975;50.956;6.962;2022-09-28T09:55:48;13.70;99.90
5899;DHT22;2975;50.956;6.962;2022-09-28T10:00:45;14.10;99.90
5899;DHT22;2975;50.956;6.962;2022-09-28T10:03:18;14.20;99.90
5899;DHT22;2975;50.956;6.962;2022-09-28T10:05:49;14.40;99.90
5899;DHT22;2975;50.956;6.962;2022-09-28T10:08:19;14.60;99.90
5899;DHT22;2975;50.956;6.962;2022-09-28T10:11:13;14.80;99.40
5899;DHT22;2975;50.956;6.962;2022-09-28T10:13:37;15.00;99.70
5899;DHT22;2975;50.956;6.962;2022-09-28T10:16:04;15.10;98.10
5899;DHT22;2975;50.956;6.962;2022-09-28T10:18:30;15.10;98.10
5899;DHT22;2975;50.956;6.962;2022-09-28T10:20:56;15.20;97.90
5899;DHT22;2975;50.956;6.962;2022-09-28T10:23:32;15.20;97.90
5899;DHT22;2975;50.956;6.962;2022-09-28T10:26:05;14.80;97.50
5899;DHT22;2975;50.956;6.962;2022-09-28T10:28:42;14.80;97.40
5899;DHT22;2975;50.956;6.962;2022-09-28T10:31:36;14.40;97.70
5899;DHT22;2975;50.956;6.962;2022-09-28T10:34:03;14.20;98.60
5899;DHT22;2975;50.956;6.962;2022-09-28T10:36:43;14.20;98.80
5899;DHT22;2975;50.956;6.962;2022-09-28T10:41:51;13.90;99.50
5899;DHT22;2975;50.956;6.962;2022-09-28T10:44:17;13.90;98.70
5899;DHT22;2975;50.956;6.962;2022-09-28T10:46:54;13.90;98.40
5899;DHT22;2975;50.956;6.962;2022-09-28T10:49:21;14.10;98.50
5899;DHT22;2975;50.956;6.962;2022-09-28T10:51:50;14.30;98.90
5899;DHT22;2975;50.956;6.962;2022-09-28T10:54:17;14.60;98.30
5899;DHT22;2975;50.956;6.962;2022-09-28T10:56:44;14.80;97.50
5899;DHT22;2975;50.956;6.962;2022-09-28T11:02:02;15.00;95.90
5899;DHT22;2975;50.956;6.962;2022-09-28T11:04:36;14.90;96.40
5899;DHT22;2975;50.956;6.962;2022-09-28T11:07:03;14.80;97.10
5899;DHT22;2975;50.956;6.962;2022-09-28T11:09:34;14.60;96.60
5899;DHT22;2975;50.956;6.962;2022-09-28T11:12:05;14.60;97.20
5899;DHT22;2975;50.956;6.962;2022-09-28T11:14:38;14.60;96.80
5899;DHT22;2975;50.956;6.962;2022-09-28T11:17:17;14.40;97.00
5899;DHT22;2975;50.956;6.962;2022-09-28T11:19:48;14.40;97.50
5899;DHT22;2975;50.956;6.962;2022-09-28T11:27:54;13.80;98.30
5899;DHT22;2975;50.956;6.962;2022-09-28T11:30:33;13.90;99.20
5899;DHT22;2975;50.956;6.962;2022-09-28T11:33:08;14.10;98.50
5899;DHT22;2975;50.956;6.962;2022-09-28T11:41:05;15.30;98.10
5899;DHT22;2975;50.956;6.962;2022-09-28T11:51:42;15.30;97.30
5899;DHT22;2975;50.956;6.962;2022-09-28T11:56:47;15.40;96.30
5899;DHT22;2975;50.956;6.962;2022-09-28T11:59:20;15.10;96.60
5899;DHT22;2975;50.956;6.962;2022-09-28T12:01:56;14.90;97.00
5899;DHT22;2975;50.956;6.962;2022-09-28T12:04:35;14.80;97.40
5899;DHT22;2975;50.956;6.962;2022-09-28T12:07:11;14.50;97.60
5899;DHT22;2975;50.956;6.962;2022-09-28T12:09:57;14.40;97.80
5899;DHT22;2975;50.956;6.962;2022-09-28T12:12:32;14.40;98.60
5899;DHT22;2975;50.956;6.962;2022-09-28T12:15:03;14.50;97.90
5899;DHT22;2975;50.956;6.962;2022-09-28T12:17:42;14.50;97.50
5899;DHT22;2975;50.956;6.962;2022-09-28T12:20:15;14.60;97.70
5899;DHT22;2975;50.956;6.962;2022-09-28T12:25:38;14.90;96.30
5899;DHT22;2975;50.956;6.962;2022-09-28T12:28:27;14.90;96.30
5899;DHT22;2975;50.956;6.962;2022-09-28T12:30:58;15.00;96.00
5899;DHT22;2975;50.956;6.962;2022-09-28T12:33:25;14.90;95.30
5899;DHT22;2975;50.956;6.962;2022-09-28T12:38:46;14.90;95.80
5899;DHT22;2975;50.956;6.962;2022-09-28T12:52:28;15.20;96.90
5899;DHT22;2975;50.956;6.962;2022-09-28T12:55:10;15.20;96.50
5899;DHT22;2975;50.956;6.962;2022-09-28T13:00:39;15.30;95.90
5899;DHT22;2975;50.956;6.962;2022-09-28T13:09:17;15.40;96.00
5899;DHT22;2975;50.956;6.962;2022-09-28T13:15:15;15.70;95.90
5899;DHT22;2975;50.956;6.962;2022-09-28T13:20:26;15.60;94.80
5899;DHT22;2975;50.956;6.962;2022-09-28T13:23:10;15.60;95.30
5899;DHT22;2975;50.956;6.962;2022-09-28T13:25:41;15.70;95.90
5899;DHT22;2975;50.956;6.962;2022-09-28T13:28:11;15.90;96.30
5899;DHT22;2975;50.956;6.962;2022-09-28T13:30:39;15.70;94.60
5899;DHT22;2975;50.956;6.962;2022-09-28T13:33:06;15.50;95.20
5899;DHT22;2975;50.956;6.962;2022-09-28T13:35:41;15.50;95.20
5899;DHT22;2975;50.956;6.962;2022-09-28T13:49:17;14.70;99.90
5899;DHT22;2975;50.956;6.962;2022-09-28T13:54:51;14.20;99.90
5899;DHT22;2975;50.956;6.962;2022-09-28T13:57:28;14.00;99.90
5899;DHT22;2975;50.956;6.962;2022-09-28T14:00:12;14.20;99.90
5899;DHT22;2975;50.956;6.962;2022-09-28T14:13:10;14.80;99.90
5899;DHT22;2975;50.956;6.962;2022-09-28T14:15:37;14.90;99.90
5899;DHT22;2975;50.956;6.962;2022-09-28T14:18:20;15.10;99.90
5899;DHT22;2975;50.956;6.962;2022-09-28T14:27:02;14.80;99.90
5899;DHT22;2975;50.956;6.962;2022-09-28T14:29:36;14.60;99.90
5899;DHT22;2975;50.956;6.962;2022-09-28T14:34:41;14.20;99.90
5899;DHT22;2975;50.956;6.962;2022-09-28T14:40:20;14.00;99.90
5899;DHT22;2975;50.956;6.962;2022-09-28T14:48:53;13.60;99.90
5899;DHT22;2975;50.956;6.962;2022-09-28T14:53:52;13.20;99.90
5899;DHT22;2975;50.956;6.962;2022-09-28T14:56:20;13.00;99.90
5899;DHT22;2975;50.956;6.962;2022-09-28T14:58:52;12.90;99.90
5899;DHT22;2975;50.956;6.962;2022-09-28T15:01:20;12.80;99.90
5899;DHT22;2975;50.956;6.962;2022-09-28T15:03:53;12.80;99.90
5899;DHT22;2975;50.956;6.962;2022-09-28T15:06:22;12.80;99.90
5899;DHT22;2975;50.956;6.962;2022-09-28T15:08:48;12.70;99.90
5899;DHT22;2975;50.956;6.962;2022-09-28T15:11:23;12.60;99.90
5899;DHT22;2975;50.956;6.962;2022-09-28T15:13:50;12.50;99.90
5899;DHT22;2975;50.956;6.962;2022-09-28T15:16:29;12.40;99.90
5899;DHT22;2975;50.956;6.962;2022-09-28T15:21:33;12.20;99.90
5899;DHT22;2975;50.956;6.962;2022-09-28T15:23:59;12.10;99.90
5899;DHT22;2975;50.956;6.962;2022-09-28T15:26:29;12.00;99.90
5899;DHT22;2975;50.956;6.962;2022-09-28T15:28:56;11.90;99.90
5899;DHT22;2975;50.956;6.962;2022-09-28T15:31:24;11.90;99.90
5899;DHT22;2975;50.956;6.962;2022-09-28T15:33:51;11.90;99.90
5899;DHT22;2975;50.956;6.962;2022-09-28T15:36:40;12.00;99.90
5899;DHT22;2975;50.956;6.962;2022-09-28T15:39:20;12.20;99.90
5899;DHT22;2975;50.956;6.962;2022-09-28T15:41:48;12.40;99.90
5899;DHT22;2975;50.956;6.962;2022-09-28T15:46:41;12.60;99.90
5899;DHT22;2975;50.956;6.962;2022-09-28T15:49:25;12.70;99.90
5899;DHT22;2975;50.956;6.962;2022-09-28T15:51:55;12.70;99.90
5899;DHT22;2975;50.956;6.962;2022-09-28T15:54:24;12.70;99.90
5899;DHT22;2975;50.956;6.962;2022-09-28T15:56:57;12.80;99.90
5899;DHT22;2975;50.956;6.962;2022-09-28T15:59:32;12.70;99.90
5899;DHT22;2975;50.956;6.962;2022-09-28T16:02:19;12.60;99.90
5899;DHT22;2975;50.956;6.962;2022-09-28T16:04:54;12.50;99.90
5899;DHT22;2975;50.956;6.962;2022-09-28T16:15:22;12.20;99.90
5899;DHT22;2975;50.956;6.962;2022-09-28T16:18:15;12.10;99.90
5899;DHT22;2975;50.956;6.962;2022-09-28T16:20:42;12.10;99.90
5899;DHT22;2975;50.956;6.962;2022-09-28T16:25:56;12.00;99.90
5899;DHT22;2975;50.956;6.962;2022-09-28T16:31:06;11.90;99.90
5899;DHT22;2975;50.956;6.962;2022-09-28T16:34:00;11.80;99.90
5899;DHT22;2975;50.956;6.962;2022-09-28T16:36:43;11.70;99.90
5899;DHT22;2975;50.956;6.962;2022-09-28T16:39:13;11.70;99.90
5899;DHT22;2975;50.956;6.962;2022-09-28T16:41:43;11.60;99.90
5899;DHT22;2975;50.956;6.962;2022-09-28T16:44:30;11.60;99.90
5899;DHT22;2975;50.956;6.962;2022-09-28T16:47:01;11.60;99.90
5899;DHT22;2975;50.956;6.962;2022-09-28T16:49:26;11.60;99.90
5899;DHT22;2975;50.956;6.962;2022-09-28T16:51:53;11.60;99.90
5899;DHT22;2975;50.956;6.962;2022-09-28T16:54:23;11.60;99.90
5899;DHT22;2975;50.956;6.962;2022-09-28T16:57:10;11.60;99.90
5899;DHT22;2975;50.956;6.962;2022-09-28T16:59:37;11.50;99.90
5899;DHT22;2975;50.956;6.962;2022-09-28T17:02:19;11.40;99.90
5899;DHT22;2975;50.956;6.962;2022-09-28T17:04:51;11.40;99.90
5899;DHT22;2975;50.956;6.962;2022-09-28T17:07:17;11.30;99.90
5899;DHT22;2975;50.956;6.962;2022-09-28T17:09:44;11.30;99.90
5899;DHT22;2975;50.956;6.962;2022-09-28T17:12:15;11.20;99.90
5899;DHT22;2975;50.956;6.962;2022-09-28T17:14:41;11.20;99.90
5899;DHT22;2975;50.956;6.962;2022-09-28T17:17:07;11.10;99.90
5899;DHT22;2975;50.956;6.962;2022-09-28T17:19:33;11.10;99.90
5899;DHT22;2975;50.956;6.962;2022-09-28T17:21:59;11.10;99.90
5899;DHT22;2975;50.956;6.962;2022-09-28T17:24:24;11.00;99.90
5899;DHT22;2975;50.956;6.962;2022-09-28T17:26:51;11.00;99.90
5899;DHT22;2975;50.956;6.962;2022-09-28T17:29:17;11.00;99.90
5899;DHT22;2975;50.956;6.962;2022-09-28T17:31:44;11.00;99.90
5899;DHT22;2975;50.956;6.962;2022-09-28T17:34:11;10.90;99.90
5899;DHT22;2975;50.956;6.962;2022-09-28T17:36:37;10.90;99.90
5899;DHT22;2975;50.956;6.962;2022-09-28T17:39:08;10.80;99.90
5899;DHT22;2975;50.956;6.962;2022-09-28T17:41:34;10.70;99.90
5899;DHT22;2975;50.956;6.962;2022-09-28T17:44:01;10.70;99.90
5899;DHT22;2975;50.956;6.962;2022-09-28T17:46:32;10.70;99.90
5899;DHT22;2975;50.956;6.962;2022-09-28T17:49:00;10.70;99.90
5899;DHT22;2975;50.956;6.962;2022-09-28T17:51:34;10.60;99.90
5899;DHT22;2975;50.956;6.962;2022-09-28T17:54:02;10.60;99.90
5899;DHT22;2975;50.956;6.962;2022-09-28T17:56:28;10.50;99.90
5899;DHT22;2975;50.956;6.962;2022-09-28T17:58:57;10.40;99.90
5899;DHT22;2975;50.956;6.962;2022-09-28T18:01:23;10.30;99.90
5899;DHT22;2975;50.956;6.962;2022-09-28T18:03:49;10.20;99.90
5899;DHT22;2975;50.956;6.962;2022-09-28T18:06:16;10.10;99.90
5899;DHT22;2975;50.956;6.962;2022-09-28T18:08:47;10.10;99.90
5899;DHT22;2975;50.956;6.962;2022-09-28T18:11:13;10.00;99.90
5899;DHT22;2975;50.956;6.962;2022-09-28T18:13:41;9.90;99.90
5899;DHT22;2975;50.956;6.962;2022-09-28T18:16:08;9.90;99.90
5899;DHT22;2975;50.956;6.962;2022-09-28T18:18:34;9.90;99.90
5899;DHT22;2975;50.956;6.962;2022-09-28T18:21:03;9.90;99.90
5899;DHT22;2975;50.956;6.962;2022-09-28T18:23:28;9.90;99.90
5899;DHT22;2975;50.956;6.962;2022-09-28T18:25:54;9.90;99.90
5899;DHT22;2975;50.956;6.962;2022-09-28T18:28:19;9.90;99.90
5899;DHT22;2975;50.956;6.962;2022-09-28T18:30:47;9.90;99.90
5899;DHT22;2975;50.956;6.962;2022-09-28T18:33:13;9.90;99.90
5899;DHT22;2975;50.956;6.962;2022-09-28T18:35:39;9.90;99.90
5899;DHT22;2975;50.956;6.962;2022-09-28T18:38:06;9.90;99.90
5899;DHT22;2975;50.956;6.962;2022-09-28T18:40:33;9.80;99.90
5899;DHT22;2975;50.956;6.962;2022-09-28T18:42:59;9.90;99.90
5899;DHT22;2975;50.956;6.962;2022-09-28T18:45:24;10.10;99.90
5899;DHT22;2975;50.956;6.962;2022-09-28T18:47:50;10.10;99.90
5899;DHT22;2975;50.956;6.962;2022-09-28T18:50:16;10.10;99.90
5899;DHT22;2975;50.956;6.962;2022-09-28T18:52:43;10.10;99.90
5899;DHT22;2975;50.956;6.962;2022-09-28T18:55:10;10.10;99.90
5899;DHT22;2975;50.956;6.962;2022-09-28T18:57:36;10.10;99.90
5899;DHT22;2975;50.956;6.962;2022-09-28T19:00:10;10.10;99.90
5899;DHT22;2975;50.956;6.962;2022-09-28T19:02:36;10.20;99.90
5899;DHT22;2975;50.956;6.962;2022-09-28T19:05:03;10.20;99.90
5899;DHT22;2975;50.956;6.962;2022-09-28T19:07:30;10.20;99.90
5899;DHT22;2975;50.956;6.962;2022-09-28T19:09:56;10.20;99.90
5899;DHT22;2975;50.956;6.962;2022-09-28T19:12:21;10.10;99.90
5899;DHT22;2975;50.956;6.962;2022-09-28T19:14:48;10.00;99.90
5899;DHT22;2975;50.956;6.962;2022-09-28T19:17:13;10.00;99.90
5899;DHT22;2975;50.956;6.962;2022-09-28T19:19:39;9.90;99.90
5899;DHT22;2975;50.956;6.962;2022-09-28T19:22:07;9.80;99.90
5899;DHT22;2975;50.956;6.962;2022-09-28T19:24:32;9.70;99.90
5899;DHT22;2975;50.956;6.962;2022-09-28T19:26:58;9.70;99.90
5899;DHT22;2975;50.956;6.962;2022-09-28T19:29:24;9.70;99.90
5899;DHT22;2975;50.956;6.962;2022-09-28T19:31:50;9.70;99.90